createdAt,value
2022-10-12T00:02:23.787Z,58.19
2022-10-12T00:04:50.409Z,57.88
2022-10-12T00:07:20.250Z,57.67
2022-10-12T00:09:46.852Z,58.00
2022-10-12T00:12:13.457Z,57.92
2022-10-12T00:14:40.100Z,57.85
2022-10-12T00:17:06.798Z,57.88
2022-10-12T00:19:33.614Z,57.88
2022-10-12T00:22:00.321Z,58.49
2022-10-12T00:24:26.951Z,58.38
2022-10-12T00:26:53.612Z,58.99
2022-10-12T00:29:20.235Z,58.20
2022-10-12T00:31:46.893Z,58.52
2022-10-12T00:34:13.605Z,58.26
2022-10-12T00:36:40.592Z,58.59
2022-10-12T00:39:09.128Z,58.89
2022-10-12T00:41:42.464Z,58.44
2022-10-12T00:44:40.269Z,58.64
2022-10-12T00:47:22.643Z,58.27
2022-10-12T00:49:58.003Z,58.52
2022-10-12T00:52:31.948Z,58.55
2022-10-12T00:54:59.392Z,59.04
2022-10-12T00:57:26.379Z,58.57
2022-10-12T00:59:59.640Z,58.38
2022-10-12T01:02:29.649Z,58.73
2022-10-12T01:04:56.804Z,58.87
2022-10-12T01:07:23.438Z,59.50
2022-10-12T01:09:50.061Z,59.88
2022-10-12T01:12:17.356Z,60.22
2022-10-12T01:14:43.971Z,60.24
2022-10-12T01:17:23.077Z,59.68
2022-10-12T01:20:01.947Z,59.83
2022-10-12T01:22:36.381Z,60.30
2022-10-12T01:25:13.131Z,60.11
2022-10-12T01:27:55.416Z,59.98
2022-10-12T01:30:26.650Z,59.79
2022-10-12T01:33:24.534Z,59.85
2022-10-12T01:36:12.195Z,59.81
2022-10-12T01:38:59.624Z,59.53
2022-10-12T01:41:39.033Z,59.80
2022-10-12T01:44:08.170Z,59.59
2022-10-12T01:46:43.886Z,59.55
2022-10-12T01:49:11.958Z,59.42
2022-10-12T01:51:44.500Z,59.61
2022-10-12T01:54:36.250Z,59.15
2022-10-12T01:57:05.515Z,58.81
2022-10-12T01:59:46.925Z,58.58
2022-10-12T02:02:29.977Z,58.75
2022-10-12T02:05:00.316Z,59.36
2022-10-12T02:07:35.022Z,59.04
2022-10-12T02:10:05.272Z,59.03
2022-10-12T02:12:34.167Z,58.83
2022-10-12T02:15:03.971Z,59.72
2022-10-12T02:17:32.612Z,59.75
2022-10-12T02:20:00.609Z,59.85
2022-10-12T02:22:34.155Z,59.73
2022-10-12T02:25:04.316Z,59.80
2022-10-12T02:27:32.955Z,59.71
2022-10-12T02:29:59.709Z,60.08
2022-10-12T02:32:44.464Z,59.78
2022-10-12T02:35:23.492Z,60.07
2022-10-12T02:37:56.611Z,60.09
2022-10-12T02:40:32.157Z,60.12
2022-10-12T02:43:17.469Z,59.75
2022-10-12T02:45:48.207Z,59.65
2022-10-12T02:48:24.312Z,60.02
2022-10-12T02:50:56.792Z,60.27
2022-10-12T02:53:24.783Z,60.47
2022-10-12T02:56:01.254Z,60.33
2022-10-12T02:58:27.926Z,60.31
2022-10-12T03:00:54.535Z,60.22
2022-10-12T03:03:21.200Z,60.58
2022-10-12T03:05:47.812Z,60.94
2022-10-12T03:08:14.398Z,60.78
2022-10-12T03:10:41.044Z,60.50
2022-10-12T03:13:07.819Z,60.35
2022-10-12T03:15:34.432Z,60.19
2022-10-12T03:18:01.124Z,60.83
2022-10-12T03:20:27.818Z,60.38
2022-10-12T03:22:54.431Z,60.79
2022-10-12T03:25:21.028Z,60.55
2022-10-12T03:27:47.745Z,60.72
2022-10-12T03:30:15.102Z,59.87
2022-10-12T03:32:41.757Z,60.16
2022-10-12T03:35:09.030Z,59.87
2022-10-12T03:37:36.362Z,60.28
2022-10-12T03:40:03.721Z,60.33
2022-10-12T03:42:30.299Z,60.68
2022-10-12T03:44:56.952Z,60.45
2022-10-12T03:47:23.599Z,60.25
2022-10-12T03:49:50.335Z,60.68
2022-10-12T03:52:16.978Z,60.69
2022-10-12T03:54:43.628Z,60.56
2022-10-12T03:57:10.246Z,60.84
2022-10-12T03:59:36.904Z,60.59
2022-10-12T04:02:03.568Z,60.70
2022-10-12T04:04:30.139Z,61.48
2022-10-12T04:06:56.725Z,61.39
2022-10-12T04:09:23.495Z,61.24
2022-10-12T04:11:50.102Z,61.22
2022-10-12T04:14:16.748Z,61.29
2022-10-12T04:16:43.351Z,61.09
2022-10-12T04:19:13.982Z,61.24
2022-10-12T04:21:40.897Z,61.35
2022-10-12T04:24:07.710Z,61.00
2022-10-12T04:26:34.410Z,61.00
2022-10-12T04:29:01.091Z,61.23
2022-10-12T04:31:27.712Z,61.44
2022-10-12T04:33:57.033Z,61.11
2022-10-12T04:36:24.895Z,61.16
2022-10-12T04:38:51.643Z,60.85
2022-10-12T04:41:18.392Z,61.57
2022-10-12T04:43:44.959Z,61.54
2022-10-12T04:46:12.019Z,62.18
2022-10-12T04:48:38.685Z,61.86
2022-10-12T04:51:06.189Z,61.01
2022-10-12T04:53:32.900Z,61.19
2022-10-12T04:56:03.302Z,60.85
2022-10-12T04:58:30.079Z,60.98
2022-10-12T05:00:56.744Z,61.26
2022-10-12T05:03:23.751Z,60.82
2022-10-12T05:05:50.494Z,61.38
2022-10-12T05:08:17.251Z,60.83
2022-10-12T05:10:43.949Z,61.01
2022-10-12T05:13:10.581Z,61.54
2022-10-12T05:15:37.148Z,61.11
2022-10-12T05:18:04.016Z,61.77
2022-10-12T05:20:30.654Z,61.20
2022-10-12T05:22:58.253Z,61.97
2022-10-12T05:25:25.264Z,61.62
2022-10-12T05:27:51.868Z,61.27
2022-10-12T05:30:18.666Z,61.58
2022-10-12T05:32:45.357Z,61.70
2022-10-12T05:35:11.982Z,61.45
2022-10-12T05:37:39.118Z,62.54
2022-10-12T05:40:07.367Z,62.61
2022-10-12T05:42:35.585Z,62.49
2022-10-12T05:45:02.977Z,62.77
2022-10-12T05:47:29.636Z,62.73
2022-10-12T05:49:56.587Z,62.25
2022-10-12T05:52:23.233Z,62.31
2022-10-12T05:54:49.852Z,62.14
2022-10-12T05:57:16.856Z,62.11
2022-10-12T05:59:43.485Z,62.00
2022-10-12T06:02:14.618Z,62.37
2022-10-12T06:04:41.705Z,62.38
2022-10-12T06:07:08.372Z,62.45
2022-10-12T06:09:35.720Z,61.99
2022-10-12T06:12:02.361Z,61.78
2022-10-12T06:14:28.970Z,61.69
2022-10-12T06:16:55.591Z,61.89
2022-10-12T06:19:22.351Z,61.36
2022-10-12T06:21:49.060Z,60.93
2022-10-12T06:24:15.709Z,61.08
2022-10-12T06:26:42.371Z,60.71
2022-10-12T06:29:09.065Z,60.87
2022-10-12T06:31:35.687Z,60.28
2022-10-12T06:34:02.300Z,60.31
2022-10-12T06:36:29.033Z,59.95
2022-10-12T06:38:56.133Z,60.50
2022-10-12T06:41:22.723Z,60.60
2022-10-12T06:43:49.341Z,60.52
2022-10-12T06:46:15.947Z,60.64
2022-10-12T06:48:42.581Z,60.05
2022-10-12T06:51:09.206Z,60.24
2022-10-12T06:53:36.622Z,60.04
2022-10-12T06:56:10.961Z,60.07
2022-10-12T06:58:38.494Z,59.82
2022-10-12T07:01:07.452Z,59.93
2022-10-12T07:03:34.483Z,60.12
2022-10-12T07:06:12.659Z,59.89
2022-10-12T07:08:41.183Z,60.20
2022-10-12T07:11:10.150Z,60.61
2022-10-12T07:13:37.092Z,60.93
2022-10-12T07:16:03.882Z,60.01
2022-10-12T07:18:30.552Z,60.50
2022-10-12T07:20:59.722Z,60.65
2022-10-12T07:23:27.398Z,60.22
2022-10-12T07:25:54.296Z,60.28
2022-10-12T07:28:22.035Z,59.66
2022-10-12T07:30:48.723Z,59.07
2022-10-12T07:33:15.696Z,58.62
2022-10-12T07:36:03.341Z,57.44
2022-10-12T07:38:29.731Z,57.67
2022-10-12T07:41:03.794Z,56.96
2022-10-12T07:43:31.841Z,58.32
2022-10-12T07:45:58.482Z,59.14
2022-10-12T07:48:25.149Z,57.99
2022-10-12T07:50:51.792Z,57.07
2022-10-12T07:53:18.452Z,56.96
2022-10-12T07:55:45.028Z,56.66
2022-10-12T07:58:12.906Z,56.13
2022-10-12T08:00:39.798Z,55.72
2022-10-12T08:03:06.522Z,55.24
2022-10-12T08:05:33.114Z,55.60
2022-10-12T08:08:00.222Z,55.49
2022-10-12T08:10:27.163Z,55.28
2022-10-12T08:12:53.823Z,55.68
2022-10-12T08:15:20.512Z,56.00
2022-10-12T08:17:47.303Z,55.78
2022-10-12T08:20:13.918Z,56.06
2022-10-12T08:22:40.682Z,55.76
2022-10-12T08:25:07.830Z,55.98
2022-10-12T08:27:35.779Z,56.27
2022-10-12T08:30:26.696Z,56.53
2022-10-12T08:32:53.619Z,56.70
2022-10-12T08:35:20.244Z,56.54
2022-10-12T08:37:46.988Z,56.19
2022-10-12T08:40:18.745Z,56.03
2022-10-12T08:42:59.881Z,55.88
2022-10-12T08:45:35.804Z,55.78
2022-10-12T08:48:12.243Z,55.41
2022-10-12T08:50:49.357Z,56.08
2022-10-12T08:53:27.433Z,56.14
2022-10-12T08:55:56.406Z,56.25
2022-10-12T08:58:31.311Z,57.02
2022-10-12T09:01:16.466Z,57.01
2022-10-12T09:03:53.561Z,56.70
2022-10-12T09:06:23.979Z,56.99
2022-10-12T09:08:56.540Z,57.15
2022-10-12T09:11:52.439Z,57.35
2022-10-12T09:14:30.530Z,57.70
2022-10-12T09:16:57.974Z,57.35
2022-10-12T09:19:42.605Z,57.64
2022-10-12T09:22:19.117Z,57.39
2022-10-12T09:24:49.007Z,57.30
2022-10-12T09:27:20.238Z,57.79
2022-10-12T09:29:51.297Z,58.01
2022-10-12T09:32:20.988Z,58.14
2022-10-12T09:34:49.050Z,57.89
2022-10-12T09:37:21.615Z,57.91
2022-10-12T09:39:48.938Z,58.03
2022-10-12T09:42:15.865Z,57.70
2022-10-12T09:44:48.970Z,57.51
2022-10-12T09:47:23.339Z,57.73
2022-10-12T09:49:51.803Z,57.38
2022-10-12T09:52:24.620Z,57.48
2022-10-12T09:55:21.639Z,57.70
2022-10-12T09:58:00.588Z,57.62
2022-10-12T10:00:31.395Z,57.54
2022-10-12T10:02:58.950Z,57.49
2022-10-12T10:05:25.752Z,57.32
2022-10-12T10:07:53.032Z,57.15
2022-10-12T10:10:28.462Z,57.25
2022-10-12T10:12:59.002Z,56.76
2022-10-12T10:15:29.331Z,56.16
2022-10-12T10:17:59.661Z,55.35
2022-10-12T10:20:30.310Z,55.74
2022-10-12T10:22:59.045Z,55.13
2022-10-12T10:25:26.732Z,54.85
2022-10-12T10:28:24.459Z,54.63
2022-10-12T10:30:59.767Z,54.25
2022-10-12T10:33:27.013Z,54.20
2022-10-12T10:36:04.227Z,53.94
2022-10-12T10:38:44.800Z,53.81
2022-10-12T10:41:17.974Z,53.81
2022-10-12T10:43:49.147Z,53.69
2022-10-12T10:46:23.015Z,53.54
2022-10-12T10:48:58.827Z,52.90
2022-10-12T10:51:40.860Z,52.15
2022-10-12T10:54:37.973Z,51.96
2022-10-12T10:57:12.341Z,50.86
2022-10-12T11:00:02.248Z,49.67
2022-10-12T11:03:16.909Z,50.22
2022-10-12T11:05:51.795Z,50.08
2022-10-12T11:08:30.653Z,49.54
2022-10-12T11:11:03.805Z,49.73
2022-10-12T11:13:41.403Z,48.99
2022-10-12T11:16:38.078Z,49.07
2022-10-12T11:19:28.645Z,49.33
2022-10-12T11:22:03.440Z,50.10
2022-10-12T11:24:40.380Z,50.51
2022-10-12T11:27:28.310Z,51.12
2022-10-12T11:30:09.784Z,51.15
2022-10-12T11:32:42.247Z,50.23
2022-10-12T11:35:25.179Z,50.57
2022-10-12T11:37:59.275Z,50.97
2022-10-12T11:43:36.538Z,50.31
2022-10-12T11:46:08.165Z,50.83
2022-10-12T11:48:57.013Z,51.62
2022-10-12T11:51:23.669Z,52.54
2022-10-12T11:54:00.947Z,52.85
2022-10-12T11:56:43.447Z,53.32
2022-10-12T12:00:02.598Z,53.89
2022-10-12T12:02:44.390Z,54.50
2022-10-12T12:05:16.433Z,55.31
2022-10-12T12:08:20.639Z,54.47
2022-10-12T12:11:03.085Z,54.00
2022-10-12T12:13:30.221Z,54.48
2022-10-12T12:15:56.768Z,54.08
2022-10-12T12:18:29.605Z,53.34
2022-10-12T12:21:06.605Z,53.32
2022-10-12T12:23:39.786Z,52.76
2022-10-12T12:26:14.701Z,53.31
2022-10-12T12:28:52.406Z,53.05
2022-10-12T12:31:22.239Z,52.54
2022-10-12T12:34:00.558Z,52.91
2022-10-12T12:36:34.678Z,52.13
2022-10-12T12:39:03.443Z,51.21
2022-10-12T12:41:57.702Z,50.59
2022-10-12T12:44:43.931Z,50.46
2022-10-12T12:50:00.618Z,49.29
2022-10-12T12:52:31.678Z,49.65
2022-10-12T12:55:36.212Z,48.87
2022-10-12T12:58:34.575Z,49.09
2022-10-12T13:01:32.804Z,48.09
2022-10-12T13:04:05.561Z,47.46
2022-10-12T13:06:47.285Z,48.22
2022-10-12T13:09:21.130Z,48.95
2022-10-12T13:11:47.793Z,48.87
2022-10-12T13:14:32.463Z,49.68
2022-10-12T13:19:48.931Z,49.95
2022-10-12T13:22:42.072Z,49.72
2022-10-12T13:25:18.005Z,49.83
2022-10-12T13:27:53.397Z,50.13
2022-10-12T13:30:32.492Z,49.59
2022-10-12T13:33:12.068Z,48.13
2022-10-12T13:36:05.589Z,48.41
2022-10-12T13:38:35.233Z,48.65
2022-10-12T13:41:13.762Z,49.60
2022-10-12T13:43:53.765Z,50.61
2022-10-12T13:46:44.588Z,50.62
2022-10-12T13:49:16.235Z,51.62
2022-10-12T13:51:47.706Z,51.49
2022-10-12T13:54:26.738Z,51.11
2022-10-12T13:56:59.955Z,52.27
2022-10-12T13:59:30.924Z,51.80
2022-10-12T14:02:01.020Z,52.00
2022-10-12T14:04:33.620Z,51.34
2022-10-12T14:07:08.277Z,51.30
2022-10-12T14:09:48.666Z,51.42
2022-10-12T14:12:15.829Z,51.11
2022-10-12T14:14:45.910Z,51.29
2022-10-12T14:17:20.687Z,51.45
2022-10-12T14:19:51.299Z,51.74
2022-10-12T14:22:25.315Z,51.55
2022-10-12T14:25:16.298Z,51.79
2022-10-12T14:27:43.531Z,51.01
2022-10-12T14:30:21.192Z,50.27
2022-10-12T14:32:48.982Z,50.13
2022-10-12T14:35:18.455Z,49.85
2022-10-12T14:37:46.399Z,49.79
2022-10-12T14:40:39.259Z,49.68
2022-10-12T14:43:10.362Z,50.47
2022-10-12T14:45:37.020Z,50.96
2022-10-12T14:48:05.530Z,51.17
2022-10-12T14:50:32.768Z,52.33
2022-10-12T14:53:03.953Z,53.06
2022-10-12T14:55:33.253Z,53.25
2022-10-12T14:58:00.528Z,53.17
2022-10-12T15:00:33.128Z,53.33
2022-10-12T15:03:00.370Z,52.89
2022-10-12T15:05:29.059Z,52.41
2022-10-12T15:07:55.679Z,52.10
2022-10-12T15:10:23.704Z,53.12
2022-10-12T15:12:51.185Z,53.15
2022-10-12T15:15:39.585Z,52.86
2022-10-12T15:18:06.619Z,53.37
2022-10-12T15:20:33.540Z,52.81
2022-10-12T15:23:01.304Z,54.04
2022-10-12T15:25:49.548Z,54.53
2022-10-12T15:28:16.235Z,54.33
2022-10-12T15:31:11.848Z,54.23
2022-10-12T15:33:30.262Z,53.83
2022-10-12T15:35:57.060Z,53.74
2022-10-12T15:38:23.737Z,53.33
2022-10-12T15:40:53.461Z,53.23
2022-10-12T15:43:20.487Z,53.41
2022-10-12T15:45:47.192Z,53.40
2022-10-12T15:48:13.798Z,54.17
2022-10-12T15:50:44.000Z,54.39
2022-10-12T15:53:20.839Z,54.26
2022-10-12T15:55:47.717Z,54.44
2022-10-12T15:58:14.611Z,54.89
2022-10-12T16:00:41.541Z,55.30
2022-10-12T16:03:15.185Z,55.62
2022-10-12T16:05:42.077Z,56.10
2022-10-12T16:08:08.726Z,56.58
2022-10-12T16:10:39.178Z,56.78
2022-10-12T16:13:07.813Z,56.55
2022-10-12T16:15:35.478Z,57.22
2022-10-12T16:18:03.492Z,57.46
2022-10-12T16:20:32.632Z,57.47
2022-10-12T16:23:00.341Z,57.51
2022-10-12T16:25:27.690Z,57.89
2022-10-12T16:27:57.011Z,57.92
2022-10-12T16:30:25.261Z,57.87
2022-10-12T16:32:52.812Z,58.25
2022-10-12T16:35:19.653Z,58.45
2022-10-12T16:37:46.300Z,58.73
2022-10-12T16:40:13.086Z,58.55
2022-10-12T16:42:39.937Z,58.91
2022-10-12T16:45:07.511Z,59.33
2022-10-12T16:47:37.713Z,59.59
2022-10-12T16:50:07.690Z,59.98
2022-10-12T16:52:34.427Z,59.97
2022-10-12T16:55:01.247Z,60.46
2022-10-12T16:57:27.984Z,60.67
2022-10-12T16:59:54.699Z,60.81
2022-10-12T17:02:21.486Z,61.15
2022-10-12T17:04:48.177Z,61.87
2022-10-12T17:07:14.922Z,61.73
2022-10-12T17:09:41.619Z,62.19
2022-10-12T17:12:08.572Z,62.67
2022-10-12T17:14:35.558Z,62.81
2022-10-12T17:17:02.159Z,63.07
2022-10-12T17:19:32.202Z,63.27
2022-10-12T17:22:00.861Z,63.34
2022-10-12T17:24:29.374Z,63.27
2022-10-12T17:26:56.535Z,63.07
2022-10-12T17:29:25.417Z,63.48
2022-10-12T17:31:53.427Z,63.96
2022-10-12T17:34:24.243Z,64.39
2022-10-12T17:36:52.605Z,64.44
2022-10-12T17:39:19.886Z,64.54
2022-10-12T17:41:47.251Z,64.64
2022-10-12T17:44:14.481Z,64.57
2022-10-12T17:46:43.143Z,64.58
2022-10-12T17:49:14.656Z,64.64
2022-10-12T17:51:42.461Z,64.16
2022-10-12T17:54:10.029Z,64.20
2022-10-12T17:56:36.806Z,63.67
2022-10-12T17:59:04.340Z,63.88
2022-10-12T18:01:32.170Z,63.94
2022-10-12T18:04:00.753Z,63.86
2022-10-12T18:06:28.944Z,62.93
2022-10-12T18:08:56.649Z,64.06
2022-10-12T18:11:24.273Z,64.51
2022-10-12T18:13:54.374Z,64.79
2022-10-12T18:16:23.925Z,64.27
2022-10-12T18:18:52.507Z,63.99
2022-10-12T18:21:26.476Z,63.76
2022-10-12T18:23:54.003Z,64.17
2022-10-12T18:26:22.173Z,64.84
2022-10-12T18:28:50.675Z,65.29
2022-10-12T18:31:23.163Z,65.70
2022-10-12T18:33:50.644Z,65.62
2022-10-12T18:36:17.969Z,65.75
2022-10-12T18:38:45.122Z,66.11
2022-10-12T18:41:15.351Z,65.70
2022-10-12T18:43:42.095Z,64.97
2022-10-12T18:46:11.242Z,64.07
2022-10-12T18:48:38.007Z,65.06
2022-10-12T18:51:21.990Z,64.83
2022-10-12T18:53:49.050Z,64.38
2022-10-12T18:56:16.399Z,63.98
2022-10-12T18:58:43.453Z,63.56
2022-10-12T19:01:22.641Z,64.30
2022-10-12T19:03:50.022Z,64.50
2022-10-12T19:06:19.546Z,64.65
2022-10-12T19:08:48.048Z,65.12
2022-10-12T19:11:17.539Z,65.50
2022-10-12T19:13:44.940Z,65.89
2022-10-12T19:16:14.973Z,65.85
2022-10-12T19:18:42.041Z,65.01
2022-10-12T19:21:11.606Z,65.37
2022-10-12T19:23:38.735Z,65.40
2022-10-12T19:26:15.087Z,66.09
2022-10-12T19:28:41.871Z,66.74
2022-10-12T19:31:14.554Z,65.75
2022-10-12T19:33:42.174Z,66.59
2022-10-12T19:36:11.045Z,67.36
2022-10-12T19:38:38.277Z,67.83
2022-10-12T19:41:05.466Z,67.73
2022-10-12T19:43:34.058Z,68.17
2022-10-12T19:46:05.692Z,68.05
2022-10-12T19:48:32.588Z,66.85
2022-10-12T19:51:10.960Z,66.42
2022-10-12T19:53:39.215Z,65.82
2022-10-12T19:56:11.821Z,65.64
2022-10-12T19:58:38.426Z,65.67
2022-10-12T20:01:08.465Z,66.12
2022-10-12T20:03:35.956Z,66.98
2022-10-12T20:06:07.752Z,66.61
2022-10-12T20:08:35.653Z,66.00
2022-10-12T20:11:02.726Z,66.26
2022-10-12T20:13:30.373Z,66.63
2022-10-12T20:15:57.433Z,66.63
2022-10-12T20:18:24.544Z,67.09
2022-10-12T20:20:51.738Z,67.01
2022-10-12T20:23:18.382Z,67.05
2022-10-12T20:25:50.547Z,66.39
2022-10-12T20:28:17.405Z,65.70
2022-10-12T20:30:44.322Z,65.60
2022-10-12T20:33:11.010Z,65.00
2022-10-12T20:35:37.718Z,64.13
2022-10-12T20:38:04.527Z,64.63
2022-10-12T20:40:31.197Z,64.49
2022-10-12T20:42:57.851Z,64.91
2022-10-12T20:45:25.358Z,64.62
2022-10-12T20:47:51.995Z,64.87
2022-10-12T20:50:18.696Z,64.98
2022-10-12T20:52:47.061Z,66.23
2022-10-12T20:55:14.054Z,65.70
2022-10-12T20:57:40.873Z,66.04
2022-10-12T21:00:08.049Z,66.47
2022-10-12T21:02:34.687Z,67.11
2022-10-12T21:05:01.326Z,67.03
2022-10-12T21:07:28.037Z,67.53
2022-10-12T21:09:54.621Z,67.75
2022-10-12T21:12:21.539Z,67.50
2022-10-12T21:14:48.676Z,67.62
2022-10-12T21:17:15.441Z,67.94
2022-10-12T21:19:42.099Z,68.12
2022-10-12T21:22:08.704Z,67.83
2022-10-12T21:24:35.332Z,67.79
2022-10-12T21:27:02.103Z,68.75
2022-10-12T21:29:28.759Z,68.58
2022-10-12T21:31:55.640Z,68.55
2022-10-12T21:34:22.466Z,68.82
2022-10-12T21:36:49.249Z,68.74
2022-10-12T21:39:16.983Z,67.79
2022-10-12T21:41:44.012Z,66.63
2022-10-12T21:44:11.284Z,66.40
2022-10-12T21:46:38.149Z,66.40
2022-10-12T21:49:07.875Z,66.25
2022-10-12T21:51:36.619Z,65.75
2022-10-12T21:54:06.954Z,65.86
2022-10-12T21:56:35.642Z,65.73
2022-10-12T21:59:04.308Z,66.03
2022-10-12T22:01:37.377Z,65.89
2022-10-12T22:04:07.349Z,66.34
2022-10-12T22:06:34.842Z,66.41
2022-10-12T22:09:05.435Z,66.33
2022-10-12T22:11:34.076Z,65.95
2022-10-12T22:14:04.013Z,66.16
2022-10-12T22:16:31.217Z,66.05
2022-10-12T22:19:02.079Z,66.21
2022-10-12T22:21:32.984Z,66.56
2022-10-12T22:24:00.477Z,65.86
2022-10-12T22:26:27.769Z,65.80
2022-10-12T22:28:55.905Z,65.38
2022-10-12T22:31:24.647Z,65.33
2022-10-12T22:33:52.460Z,64.89
2022-10-12T22:36:19.284Z,65.72
2022-10-12T22:38:46.571Z,67.34
2022-10-12T22:41:15.517Z,66.53
2022-10-12T22:43:47.042Z,66.90
2022-10-12T22:46:14.163Z,66.91
2022-10-12T22:48:40.827Z,66.71
2022-10-12T22:51:11.581Z,66.70
2022-10-12T22:53:38.225Z,66.70
2022-10-12T22:56:13.857Z,66.73
2022-10-12T22:58:40.528Z,67.25
2022-10-12T23:01:10.424Z,67.47
2022-10-12T23:03:38.064Z,67.27
2022-10-12T23:06:15.870Z,67.01
2022-10-12T23:08:43.504Z,66.84
2022-10-12T23:11:16.139Z,67.10
2022-10-12T23:13:43.596Z,68.19
2022-10-12T23:16:18.557Z,68.15
2022-10-12T23:18:45.626Z,67.90
2022-10-12T23:21:17.490Z,67.81
2022-10-12T23:23:45.493Z,68.43
2022-10-12T23:26:15.098Z,68.34
2022-10-12T23:28:42.223Z,68.83
2022-10-12T23:31:17.113Z,68.11
2022-10-12T23:33:44.485Z,67.69
2022-10-12T23:36:14.263Z,67.89
2022-10-12T23:38:42.103Z,68.18
2022-10-12T23:41:09.736Z,68.29
2022-10-12T23:43:36.730Z,68.18
2022-10-12T23:46:05.051Z,68.44
2022-10-12T23:48:32.427Z,69.05
2022-10-12T23:50:59.632Z,69.01
2022-10-12T23:53:26.998Z,68.71
2022-10-12T23:55:54.384Z,68.05
2022-10-12T23:58:21.322Z,67.49
